createdAt,value
2022-11-23T00:02:03.204Z,34.58
2022-11-23T00:04:53.326Z,34.41
2022-11-23T00:07:44.763Z,34.34
2022-11-23T00:10:35.641Z,34.16
2022-11-23T00:13:26.257Z,34.19
2022-11-23T00:16:18.326Z,34.04
2022-11-23T00:19:09.083Z,34.00
2022-11-23T00:22:00.012Z,33.91
2022-11-23T00:24:50.229Z,33.85
2022-11-23T00:27:40.805Z,34.10
2022-11-23T00:30:33.125Z,34.05
2022-11-23T00:33:23.687Z,34.02
2022-11-23T00:36:16.907Z,33.91
2022-11-23T00:39:06.789Z,33.92
2022-11-23T00:41:57.139Z,34.23
2022-11-23T00:44:46.831Z,34.37
2022-11-23T00:47:36.836Z,34.20
2022-11-23T00:50:28.416Z,34.34
2022-11-23T00:53:18.060Z,34.58
2022-11-23T00:56:09.193Z,34.67
2022-11-23T00:59:00.612Z,34.73
2022-11-23T01:01:52.064Z,34.78
2022-11-23T01:04:42.868Z,34.78
2022-11-23T01:07:33.674Z,34.72
2022-11-23T01:10:24.004Z,34.83
2022-11-23T01:13:14.052Z,35.08
2022-11-23T01:16:04.006Z,35.23
2022-11-23T01:18:56.843Z,35.37
2022-11-23T01:21:47.629Z,35.33
2022-11-23T01:24:37.981Z,35.43
2022-11-23T01:27:30.942Z,35.55
2022-11-23T01:30:22.464Z,35.48
2022-11-23T01:33:15.313Z,35.32
2022-11-23T01:36:12.632Z,35.23
2022-11-23T01:39:04.021Z,35.19
2022-11-23T01:41:54.603Z,35.16
2022-11-23T01:44:45.797Z,35.11
2022-11-23T01:47:38.816Z,35.14
2022-11-23T01:50:29.003Z,35.14
2022-11-23T01:53:20.376Z,35.26
2022-11-23T01:56:16.431Z,35.36
2022-11-23T01:59:11.189Z,35.40
2022-11-23T02:02:02.118Z,35.42
2022-11-23T02:04:52.985Z,35.41
2022-11-23T02:07:44.460Z,35.39
2022-11-23T02:10:38.835Z,35.36
2022-11-23T02:13:34.717Z,35.38
2022-11-23T02:16:26.201Z,35.25
2022-11-23T02:19:27.391Z,35.27
2022-11-23T02:22:28.327Z,35.28
2022-11-23T02:25:27.140Z,35.26
2022-11-23T02:28:20.979Z,35.26
2022-11-23T02:34:19.508Z,35.44
2022-11-23T02:37:09.670Z,35.49
2022-11-23T02:40:04.222Z,35.49
2022-11-23T02:42:57.501Z,35.38
2022-11-23T02:45:52.085Z,35.41
2022-11-23T02:48:42.116Z,35.47
2022-11-23T02:51:32.030Z,35.49
2022-11-23T02:54:25.505Z,35.57
2022-11-23T02:57:15.945Z,35.50
2022-11-23T03:00:11.598Z,35.48
2022-11-23T03:03:02.902Z,35.58
2022-11-23T03:05:53.121Z,35.55
2022-11-23T03:08:43.218Z,35.51
2022-11-23T03:11:34.090Z,35.68
2022-11-23T03:14:25.966Z,35.65
2022-11-23T03:17:21.017Z,35.76
2022-11-23T03:20:12.904Z,36.09
2022-11-23T03:23:05.092Z,36.14
2022-11-23T03:26:00.050Z,36.17
2022-11-23T03:28:53.967Z,36.25
2022-11-23T03:31:44.963Z,36.41
2022-11-23T03:34:37.325Z,36.51
2022-11-23T03:37:28.184Z,36.76
2022-11-23T03:40:19.483Z,36.91
2022-11-23T03:43:42.322Z,36.96
2022-11-23T03:46:33.850Z,36.82
2022-11-23T03:49:23.790Z,36.49
2022-11-23T03:52:16.026Z,36.33
2022-11-23T03:55:09.567Z,36.29
2022-11-23T03:58:00.437Z,36.07
2022-11-23T04:00:52.524Z,35.87
2022-11-23T04:03:42.724Z,35.88
2022-11-23T04:06:37.521Z,35.75
2022-11-23T04:09:35.350Z,35.79
2022-11-23T04:12:28.570Z,35.75
2022-11-23T04:15:19.761Z,35.68
2022-11-23T04:18:10.509Z,35.86
2022-11-23T04:21:02.014Z,35.96
2022-11-23T04:23:52.797Z,35.97
2022-11-23T04:26:43.191Z,35.85
2022-11-23T04:29:34.078Z,35.69
2022-11-23T04:32:24.303Z,35.58
2022-11-23T04:35:14.874Z,35.46
2022-11-23T04:38:05.969Z,35.28
2022-11-23T04:40:56.791Z,35.19
2022-11-23T04:43:48.754Z,35.06
2022-11-23T04:46:39.380Z,34.94
2022-11-23T04:49:32.644Z,34.95
2022-11-23T04:52:23.331Z,34.92
2022-11-23T04:55:14.087Z,34.96
2022-11-23T04:58:10.750Z,35.00
2022-11-23T05:01:01.718Z,34.86
2022-11-23T05:03:52.447Z,34.76
2022-11-23T05:06:43.375Z,34.62
2022-11-23T05:09:33.918Z,34.70
2022-11-23T05:12:30.560Z,34.67
2022-11-23T05:15:22.390Z,34.73
2022-11-23T05:18:13.979Z,34.86
2022-11-23T05:21:04.755Z,34.85
2022-11-23T05:23:55.539Z,34.88
2022-11-23T05:26:45.670Z,34.89
2022-11-23T05:29:36.022Z,34.82
2022-11-23T05:32:27.635Z,34.76
2022-11-23T05:35:18.445Z,34.76
2022-11-23T05:38:09.356Z,34.79
2022-11-23T05:41:00.878Z,34.72
2022-11-23T05:43:51.361Z,34.63
2022-11-23T05:46:45.508Z,34.64
2022-11-23T05:49:35.449Z,34.66
2022-11-23T05:52:27.503Z,34.63
2022-11-23T05:55:18.727Z,34.72
2022-11-23T05:58:08.874Z,34.79
2022-11-23T06:01:02.213Z,34.81
2022-11-23T06:03:56.040Z,35.02
2022-11-23T06:06:47.117Z,35.07
2022-11-23T06:09:38.559Z,35.03
2022-11-23T06:12:32.524Z,35.14
2022-11-23T06:15:23.752Z,35.17
2022-11-23T06:18:14.871Z,35.20
2022-11-23T06:21:09.144Z,35.20
2022-11-23T06:24:00.613Z,35.41
2022-11-23T06:26:53.656Z,41.90
2022-11-23T06:29:43.429Z,42.73
2022-11-23T06:32:33.992Z,39.63
2022-11-23T06:35:24.562Z,38.72
2022-11-23T06:38:15.123Z,37.41
2022-11-23T06:41:05.605Z,35.95
2022-11-23T06:43:55.562Z,35.33
2022-11-23T06:46:56.498Z,35.26
2022-11-23T06:49:46.699Z,35.15
2022-11-23T06:52:41.734Z,34.97
2022-11-23T06:55:32.191Z,34.85
2022-11-23T06:58:22.682Z,34.67
2022-11-23T07:01:15.694Z,34.69
2022-11-23T07:04:23.096Z,34.97
2022-11-23T07:07:14.918Z,35.17
2022-11-23T07:10:12.117Z,35.15
2022-11-23T07:13:09.505Z,35.09
2022-11-23T07:16:00.624Z,34.88
2022-11-23T07:18:50.975Z,35.01
2022-11-23T07:21:41.775Z,34.95
2022-11-23T07:24:37.932Z,35.06
2022-11-23T07:27:30.331Z,35.53
2022-11-23T07:30:24.072Z,35.62
2022-11-23T07:33:18.359Z,35.42
2022-11-23T07:36:10.846Z,35.20
2022-11-23T07:39:04.834Z,35.11
2022-11-23T07:42:30.555Z,35.21
2022-11-23T07:45:09.427Z,35.17
2022-11-23T07:48:07.413Z,35.18
2022-11-23T07:50:58.118Z,35.29
2022-11-23T07:53:48.241Z,35.38
2022-11-23T07:56:38.204Z,35.37
2022-11-23T07:59:28.313Z,35.29
2022-11-23T08:02:18.674Z,35.36
2022-11-23T08:05:14.326Z,35.47
2022-11-23T08:08:05.326Z,35.56
2022-11-23T08:10:55.643Z,35.77
2022-11-23T08:13:46.484Z,35.99
2022-11-23T08:16:36.609Z,35.90
2022-11-23T08:19:26.251Z,35.76
2022-11-23T08:22:16.947Z,35.53
2022-11-23T08:25:07.755Z,35.48
2022-11-23T08:28:02.673Z,35.69
2022-11-23T08:30:52.757Z,35.92
2022-11-23T08:33:42.848Z,36.02
2022-11-23T08:36:32.954Z,36.02
2022-11-23T08:39:22.858Z,36.29
2022-11-23T08:42:12.791Z,36.39
2022-11-23T08:45:04.431Z,36.07
2022-11-23T08:47:55.816Z,35.99
2022-11-23T08:50:46.241Z,35.96
2022-11-23T08:53:36.369Z,35.29
2022-11-23T08:56:26.225Z,34.21
2022-11-23T08:59:17.235Z,33.51
2022-11-23T09:02:07.631Z,32.69
2022-11-23T09:04:57.812Z,31.60
2022-11-23T09:07:47.610Z,30.71
2022-11-23T09:10:38.119Z,29.88
2022-11-23T09:13:28.384Z,29.14
2022-11-23T09:16:18.306Z,28.55
2022-11-23T09:19:08.359Z,27.98
2022-11-23T09:21:58.522Z,27.41
2022-11-23T09:24:48.968Z,26.70
2022-11-23T09:27:39.366Z,26.06
2022-11-23T09:30:29.427Z,25.58
2022-11-23T09:33:19.677Z,24.94
2022-11-23T09:36:10.949Z,24.36
2022-11-23T09:39:01.977Z,23.82
2022-11-23T09:42:07.262Z,23.07
2022-11-23T09:45:10.452Z,22.43
2022-11-23T09:48:27.207Z,21.66
2022-11-23T09:51:20.485Z,21.02
2022-11-23T09:54:21.933Z,20.95
2022-11-23T09:57:16.545Z,20.85
2022-11-23T10:00:17.132Z,20.86
2022-11-23T10:03:08.121Z,21.19
2022-11-23T10:06:04.949Z,21.12
2022-11-23T10:09:19.244Z,21.08
2022-11-23T10:12:38.554Z,21.37
2022-11-23T10:15:35.207Z,21.40
2022-11-23T10:18:38.524Z,21.57
2022-11-23T10:21:40.050Z,21.83
2022-11-23T10:24:35.276Z,22.00
2022-11-23T10:27:27.131Z,22.16
2022-11-23T10:30:21.214Z,22.41
2022-11-23T10:33:24.475Z,22.35
2022-11-23T10:36:15.084Z,22.59
2022-11-23T10:39:12.143Z,22.83
2022-11-23T10:42:09.249Z,22.93
2022-11-23T10:45:01.391Z,23.14
2022-11-23T10:47:56.120Z,23.27
2022-11-23T10:50:47.533Z,23.39
2022-11-23T10:53:37.570Z,23.54
2022-11-23T10:56:27.521Z,23.55
2022-11-23T10:59:29.860Z,23.78
2022-11-23T11:02:22.187Z,24.08
2022-11-23T11:05:53.532Z,24.32
2022-11-23T11:08:50.844Z,24.50
2022-11-23T11:11:48.009Z,24.60
2022-11-23T11:14:43.330Z,24.78
2022-11-23T11:17:35.298Z,24.94
2022-11-23T11:20:34.766Z,25.08
2022-11-23T11:23:26.391Z,25.26
2022-11-23T11:26:23.547Z,25.54
2022-11-23T11:29:38.125Z,25.75
2022-11-23T11:32:38.011Z,26.05
2022-11-23T11:35:32.231Z,26.20
2022-11-23T11:38:27.933Z,26.31
2022-11-23T11:41:25.615Z,26.52
2022-11-23T11:44:23.247Z,26.73
2022-11-23T11:47:25.692Z,26.91
2022-11-23T11:50:31.135Z,26.99
2022-11-23T11:53:25.762Z,27.08
2022-11-23T11:56:24.035Z,27.35
2022-11-23T11:59:20.923Z,27.45
2022-11-23T12:02:24.638Z,27.54
2022-11-23T12:05:23.587Z,27.55
2022-11-23T12:08:17.590Z,27.59
2022-11-23T12:11:12.979Z,27.51
2022-11-23T12:14:06.610Z,27.38
2022-11-23T12:17:31.347Z,27.33
2022-11-23T12:20:24.054Z,27.69
2022-11-23T12:23:25.646Z,27.64
2022-11-23T12:26:25.757Z,27.81
2022-11-23T12:29:42.583Z,27.84
2022-11-23T12:32:47.392Z,28.08
2022-11-23T12:36:02.701Z,28.10
2022-11-23T12:39:01.833Z,28.15
2022-11-23T12:42:01.308Z,28.15
2022-11-23T12:45:05.859Z,28.44
2022-11-23T12:48:07.265Z,28.63
2022-11-23T12:51:04.392Z,28.71
2022-11-23T12:54:06.377Z,28.76
2022-11-23T12:57:09.044Z,28.75
2022-11-23T13:00:03.964Z,28.81
2022-11-23T13:03:20.474Z,28.94
2022-11-23T13:06:37.325Z,28.96
2022-11-23T13:09:52.381Z,29.12
2022-11-23T13:13:15.414Z,29.49
2022-11-23T13:16:27.767Z,29.55
2022-11-23T13:19:33.705Z,29.68
2022-11-23T13:22:25.620Z,29.67
2022-11-23T13:25:24.452Z,29.70
2022-11-23T13:28:31.218Z,29.74
2022-11-23T13:31:31.060Z,29.91
2022-11-23T13:34:46.691Z,29.97
2022-11-23T13:38:15.107Z,30.14
2022-11-23T13:41:05.937Z,30.10
2022-11-23T13:43:56.182Z,30.10
2022-11-23T13:46:46.886Z,30.17
2022-11-23T13:49:42.060Z,30.38
2022-11-23T13:52:36.401Z,30.62
2022-11-23T13:55:35.858Z,30.71
2022-11-23T13:58:50.983Z,30.90
2022-11-23T14:02:18.147Z,30.91
2022-11-23T14:05:37.630Z,31.18
2022-11-23T14:08:28.786Z,31.37
2022-11-23T14:11:21.949Z,31.46
2022-11-23T14:14:25.501Z,31.65
2022-11-23T14:18:05.007Z,31.57
2022-11-23T14:21:05.664Z,31.34
2022-11-23T14:24:15.886Z,31.38
2022-11-23T14:27:46.286Z,31.66
2022-11-23T14:30:44.196Z,31.53
2022-11-23T14:33:41.755Z,32.14
2022-11-23T14:36:44.638Z,32.15
2022-11-23T14:39:55.634Z,33.48
2022-11-23T14:42:51.762Z,33.46
2022-11-23T14:45:42.715Z,33.45
2022-11-23T14:48:34.084Z,33.51
2022-11-23T14:51:27.346Z,33.53
2022-11-23T14:54:19.083Z,33.92
2022-11-23T14:57:14.334Z,34.14
2022-11-23T15:00:11.460Z,34.41
2022-11-23T15:03:34.626Z,34.75
2022-11-23T15:06:22.841Z,35.19
2022-11-23T15:09:25.027Z,35.40
2022-11-23T15:12:25.376Z,35.76
2022-11-23T15:15:22.457Z,35.99
2022-11-23T15:18:13.205Z,36.15
2022-11-23T15:21:05.451Z,36.35
2022-11-23T15:23:57.509Z,36.73
2022-11-23T15:26:49.290Z,37.23
2022-11-23T15:29:40.763Z,37.46
2022-11-23T15:32:34.416Z,37.75
2022-11-23T15:35:31.012Z,38.03
2022-11-23T15:38:23.822Z,37.99
2022-11-23T15:41:15.496Z,38.19
2022-11-23T15:44:19.376Z,38.39
2022-11-23T15:47:16.579Z,38.66
2022-11-23T15:50:11.377Z,38.69
2022-11-23T15:53:03.947Z,38.51
2022-11-23T15:55:55.209Z,38.56
2022-11-23T15:58:50.536Z,38.77
2022-11-23T16:01:42.263Z,38.86
2022-11-23T16:04:35.780Z,38.92
2022-11-23T16:07:27.959Z,39.16
2022-11-23T16:10:22.009Z,39.44
2022-11-23T16:13:37.559Z,39.62
2022-11-23T16:16:28.563Z,39.56
2022-11-23T16:19:31.829Z,39.60
2022-11-23T16:22:33.287Z,39.70
2022-11-23T16:25:31.512Z,39.84
2022-11-23T16:28:29.060Z,39.87
2022-11-23T16:31:30.540Z,40.01
2022-11-23T16:34:21.813Z,39.99
2022-11-23T16:37:11.857Z,40.02
2022-11-23T16:40:02.271Z,40.01
2022-11-23T16:42:54.229Z,39.95
2022-11-23T16:45:46.483Z,40.04
2022-11-23T16:48:44.084Z,40.05
2022-11-23T16:51:33.977Z,40.07
2022-11-23T16:54:25.329Z,39.90
2022-11-23T16:57:24.989Z,40.10
2022-11-23T17:00:21.793Z,40.03
2022-11-23T17:03:15.679Z,40.18
2022-11-23T17:06:08.433Z,40.21
2022-11-23T17:09:06.183Z,40.45
2022-11-23T17:11:58.436Z,40.30
2022-11-23T17:14:50.893Z,40.22
2022-11-23T17:17:40.879Z,40.30
2022-11-23T17:20:30.878Z,40.50
2022-11-23T17:23:20.776Z,40.51
2022-11-23T17:26:31.137Z,40.65
2022-11-23T17:29:22.045Z,40.80
2022-11-23T17:32:14.347Z,40.82
2022-11-23T17:35:04.302Z,40.96
2022-11-23T17:37:54.850Z,41.13
2022-11-23T17:40:45.163Z,41.19
2022-11-23T17:43:35.491Z,41.26
2022-11-23T17:46:26.628Z,41.36
2022-11-23T17:49:20.050Z,41.49
2022-11-23T17:52:13.533Z,41.58
2022-11-23T17:55:03.846Z,41.67
2022-11-23T17:57:54.053Z,41.91
2022-11-23T18:00:43.825Z,42.16
2022-11-23T18:03:33.545Z,42.36
2022-11-23T18:06:25.340Z,42.52
2022-11-23T18:09:15.466Z,42.59
2022-11-23T18:12:05.620Z,42.74
2022-11-23T18:14:55.464Z,42.88
2022-11-23T18:17:45.740Z,43.02
2022-11-23T18:20:43.227Z,42.97
2022-11-23T18:23:33.835Z,43.27
2022-11-23T18:26:26.005Z,43.59
2022-11-23T18:29:17.330Z,43.85
2022-11-23T18:32:08.376Z,43.90
2022-11-23T18:34:58.109Z,43.90
2022-11-23T18:37:48.497Z,43.98
2022-11-23T18:40:38.392Z,43.94
2022-11-23T18:43:28.555Z,44.14
2022-11-23T18:46:19.902Z,44.38
2022-11-23T18:49:10.341Z,44.26
2022-11-23T18:52:00.220Z,44.08
2022-11-23T18:54:50.323Z,44.06
2022-11-23T18:57:40.603Z,44.17
2022-11-23T19:00:31.053Z,44.09
2022-11-23T19:03:20.970Z,44.08
2022-11-23T19:06:13.880Z,44.24
2022-11-23T19:09:03.890Z,44.23
2022-11-23T19:11:54.993Z,44.33
2022-11-23T19:14:49.695Z,44.38
2022-11-23T19:17:40.533Z,44.45
2022-11-23T19:20:32.060Z,44.53
2022-11-23T19:23:23.548Z,44.54
2022-11-23T19:26:16.229Z,44.64
2022-11-23T19:29:07.178Z,44.74
2022-11-23T19:31:57.171Z,44.74
2022-11-23T19:34:47.319Z,44.87
2022-11-23T19:37:39.765Z,44.99
2022-11-23T19:40:30.605Z,45.14
2022-11-23T19:43:20.546Z,45.25
2022-11-23T19:46:13.685Z,45.19
2022-11-23T19:49:05.046Z,45.16
2022-11-23T19:51:56.457Z,45.24
2022-11-23T19:54:46.083Z,45.31
2022-11-23T19:57:36.421Z,45.38
2022-11-23T20:00:26.834Z,45.36
2022-11-23T20:03:18.871Z,45.32
2022-11-23T20:06:13.037Z,45.34
2022-11-23T20:09:05.585Z,45.31
2022-11-23T20:11:55.254Z,45.13
2022-11-23T20:14:46.447Z,45.01
2022-11-23T20:17:36.464Z,44.92
2022-11-23T20:20:27.991Z,45.05
2022-11-23T20:23:18.792Z,44.95
2022-11-23T20:26:09.504Z,44.69
2022-11-23T20:29:00.729Z,44.35
2022-11-23T20:31:51.816Z,44.29
2022-11-23T20:34:42.380Z,44.29
2022-11-23T20:37:33.420Z,43.91
2022-11-23T20:40:24.009Z,43.21
2022-11-23T20:43:14.258Z,43.06
2022-11-23T20:46:04.252Z,42.71
2022-11-23T20:48:57.489Z,42.41
2022-11-23T20:51:47.918Z,42.52
2022-11-23T20:54:37.640Z,42.50
2022-11-23T20:57:27.830Z,42.53
2022-11-23T21:00:21.443Z,42.59
2022-11-23T21:03:12.606Z,42.66
2022-11-23T21:06:07.711Z,42.67
2022-11-23T21:08:57.907Z,42.45
2022-11-23T21:12:05.143Z,42.12
2022-11-23T21:14:55.537Z,42.15
2022-11-23T21:17:45.367Z,41.79
2022-11-23T21:20:36.797Z,41.23
2022-11-23T21:23:26.578Z,41.01
2022-11-23T21:26:16.965Z,41.06
2022-11-23T21:29:11.370Z,40.99
2022-11-23T21:32:02.633Z,40.80
2022-11-23T21:34:53.267Z,40.73
2022-11-23T21:37:43.218Z,40.69
2022-11-23T21:40:33.754Z,40.62
2022-11-23T21:43:23.675Z,40.47
2022-11-23T21:46:14.950Z,40.81
2022-11-23T21:49:06.733Z,40.54
2022-11-23T21:51:57.157Z,40.42
2022-11-23T21:54:49.100Z,40.29
2022-11-23T21:57:39.632Z,40.26
2022-11-23T22:00:31.618Z,40.23
2022-11-23T22:03:22.063Z,40.28
2022-11-23T22:06:20.043Z,40.21
2022-11-23T22:09:12.226Z,40.15
2022-11-23T22:12:02.077Z,40.10
2022-11-23T22:14:51.987Z,40.07
2022-11-23T22:17:42.091Z,40.14
2022-11-23T22:20:34.198Z,40.17
2022-11-23T22:23:25.129Z,40.19
2022-11-23T22:26:16.994Z,40.19
2022-11-23T22:29:07.485Z,40.23
2022-11-23T22:31:57.599Z,40.21
2022-11-23T22:34:47.944Z,40.32
2022-11-23T22:37:38.080Z,40.40
2022-11-23T22:40:34.214Z,40.33
2022-11-23T22:43:24.263Z,40.48
2022-11-23T22:46:17.676Z,40.51
2022-11-23T22:49:07.737Z,40.58
2022-11-23T22:51:57.376Z,40.81
2022-11-23T22:54:47.153Z,40.84
2022-11-23T22:57:36.717Z,40.78
2022-11-23T23:00:26.699Z,40.82
2022-11-23T23:03:17.041Z,40.67
2022-11-23T23:06:08.171Z,40.59
2022-11-23T23:09:00.236Z,40.65
2022-11-23T23:11:50.430Z,40.54
2022-11-23T23:14:40.195Z,40.51
2022-11-23T23:17:30.049Z,40.46
2022-11-23T23:20:20.490Z,40.42
2022-11-23T23:23:10.462Z,40.35
2022-11-23T23:26:00.482Z,40.25
2022-11-23T23:28:50.661Z,40.33
2022-11-23T23:31:41.346Z,40.41
2022-11-23T23:34:31.633Z,40.50
2022-11-23T23:37:21.944Z,40.39
2022-11-23T23:40:13.220Z,40.28
2022-11-23T23:43:03.356Z,40.30
2022-11-23T23:45:56.989Z,40.25
2022-11-23T23:48:48.031Z,40.18
2022-11-23T23:51:38.200Z,40.29
2022-11-23T23:54:28.396Z,40.40
2022-11-23T23:57:18.405Z,40.37
